sensor_id;sensor_type;location;lat;lon;timestamp;pressure;altitude;pressure_sealevel;temperature;humidity
9855;BME280;4966;48.112;9.282;2023-09-07T00:00:17;95044.69;;;15.04;76.12
9855;BME280;4966;48.112;9.282;2023-09-07T00:02:42;95038.81;;;15.06;76.24
9855;BME280;4966;48.112;9.282;2023-09-07T00:05:08;95043.06;;;15.03;76.28
9855;BME280;4966;48.112;9.282;2023-09-07T00:07:34;95036.38;;;15.01;76.42
9855;BME280;4966;48.112;9.282;2023-09-07T00:09:59;95039.03;;;14.97;76.55
9855;BME280;4966;48.112;9.282;2023-09-07T00:12:25;95039.13;;;15.01;75.98
9855;BME280;4966;48.112;9.282;2023-09-07T00:14:52;95031.47;;;14.91;76.49
9855;BME280;4966;48.112;9.282;2023-09-07T00:17:17;95044.41;;;15.09;75.48
9855;BME280;4966;48.112;9.282;2023-09-07T00:19:43;95029.75;;;15.02;75.93
9855;BME280;4966;48.112;9.282;2023-09-07T00:22:08;95039.91;;;14.66;77.49
9855;BME280;4966;48.112;9.282;2023-09-07T00:24:34;95032.56;;;14.70;77.92
9855;BME280;4966;48.112;9.282;2023-09-07T00:27:00;95029.63;;;14.79;77.66
9855;BME280;4966;48.112;9.282;2023-09-07T00:29:25;95025.53;;;14.88;77.54
9855;BME280;4966;48.112;9.282;2023-09-07T00:31:50;95027.84;;;14.86;77.41
9855;BME280;4966;48.112;9.282;2023-09-07T00:34:15;95023.97;;;14.87;77.58
9855;BME280;4966;48.112;9.282;2023-09-07T00:36:41;95029.06;;;14.89;77.12
9855;BME280;4966;48.112;9.282;2023-09-07T00:39:07;95029.44;;;14.87;76.56
9855;BME280;4966;48.112;9.282;2023-09-07T00:41:33;95030.94;;;14.85;76.70
9855;BME280;4966;48.112;9.282;2023-09-07T00:43:58;95035.63;;;14.84;76.80
9855;BME280;4966;48.112;9.282;2023-09-07T00:46:24;95038.16;;;14.93;75.76
9855;BME280;4966;48.112;9.282;2023-09-07T00:48:49;95037.13;;;14.82;75.56
9855;BME280;4966;48.112;9.282;2023-09-07T00:51:15;95035.81;;;14.76;75.74
9855;BME280;4966;48.112;9.282;2023-09-07T00:53:41;95030.34;;;14.76;75.29
9855;BME280;4966;48.112;9.282;2023-09-07T00:56:06;95023.81;;;14.80;74.43
9855;BME280;4966;48.112;9.282;2023-09-07T00:58:32;95024.88;;;14.76;74.35
9855;BME280;4966;48.112;9.282;2023-09-07T01:00:59;95031.31;;;14.67;74.71
9855;BME280;4966;48.112;9.282;2023-09-07T01:03:24;95031.13;;;14.60;75.19
9855;BME280;4966;48.112;9.282;2023-09-07T01:05:56;95030.19;;;14.68;74.53
9855;BME280;4966;48.112;9.282;2023-09-07T01:08:25;95028.69;;;14.55;74.71
9855;BME280;4966;48.112;9.282;2023-09-07T01:10:51;95029.38;;;14.52;74.97
9855;BME280;4966;48.112;9.282;2023-09-07T01:13:18;95034.97;;;14.56;74.87
9855;BME280;4966;48.112;9.282;2023-09-07T01:15:44;95019.91;;;14.50;75.12
9855;BME280;4966;48.112;9.282;2023-09-07T01:18:10;95021.06;;;14.49;75.29
9855;BME280;4966;48.112;9.282;2023-09-07T01:20:36;95023.81;;;14.49;75.24
9855;BME280;4966;48.112;9.282;2023-09-07T01:23:03;95022.66;;;14.34;76.33
9855;BME280;4966;48.112;9.282;2023-09-07T01:25:29;95026.81;;;14.28;76.51
9855;BME280;4966;48.112;9.282;2023-09-07T01:27:56;95018.59;;;14.28;76.66
9855;BME280;4966;48.112;9.282;2023-09-07T01:30:21;95024.16;;;14.31;76.63
9855;BME280;4966;48.112;9.282;2023-09-07T01:32:47;95027.84;;;14.39;76.01
9855;BME280;4966;48.112;9.282;2023-09-07T01:35:14;95026.03;;;14.27;76.56
9855;BME280;4966;48.112;9.282;2023-09-07T01:37:42;95024.94;;;14.32;76.19
9855;BME280;4966;48.112;9.282;2023-09-07T01:40:07;95020.97;;;14.45;74.72
9855;BME280;4966;48.112;9.282;2023-09-07T01:42:33;95018.59;;;14.28;74.86
9855;BME280;4966;48.112;9.282;2023-09-07T01:44:59;95025.66;;;14.29;74.61
9855;BME280;4966;48.112;9.282;2023-09-07T01:47:24;95026.19;;;14.18;75.19
9855;BME280;4966;48.112;9.282;2023-09-07T01:49:49;95033.94;;;14.16;75.12
9855;BME280;4966;48.112;9.282;2023-09-07T01:52:15;95031.47;;;14.11;75.01
9855;BME280;4966;48.112;9.282;2023-09-07T01:54:40;95033.69;;;14.21;74.55
9855;BME280;4966;48.112;9.282;2023-09-07T01:57:06;95046.13;;;14.19;74.59
9855;BME280;4966;48.112;9.282;2023-09-07T01:59:31;95034.56;;;14.10;75.22
9855;BME280;4966;48.112;9.282;2023-09-07T02:01:56;95029.09;;;13.94;76.43
9855;BME280;4966;48.112;9.282;2023-09-07T02:04:21;95030.41;;;14.00;76.55
9855;BME280;4966;48.112;9.282;2023-09-07T02:06:47;95029.47;;;14.08;76.23
9855;BME280;4966;48.112;9.282;2023-09-07T02:09:12;95027.31;;;14.01;76.37
9855;BME280;4966;48.112;9.282;2023-09-07T02:11:37;95025.03;;;14.03;76.48
9855;BME280;4966;48.112;9.282;2023-09-07T02:14:03;95025.72;;;14.00;76.45
9855;BME280;4966;48.112;9.282;2023-09-07T02:16:28;95022.47;;;13.95;76.91
9855;BME280;4966;48.112;9.282;2023-09-07T02:19:01;95027.59;;;13.96;76.88
9855;BME280;4966;48.112;9.282;2023-09-07T02:21:28;95025.31;;;13.98;76.84
9855;BME280;4966;48.112;9.282;2023-09-07T02:23:53;95026.09;;;13.99;76.89
9855;BME280;4966;48.112;9.282;2023-09-07T02:26:19;95023.09;;;14.04;76.15
9855;BME280;4966;48.112;9.282;2023-09-07T02:28:44;95017.44;;;13.97;75.80
9855;BME280;4966;48.112;9.282;2023-09-07T02:31:09;95018.75;;;14.03;74.98
9855;BME280;4966;48.112;9.282;2023-09-07T02:33:35;95024.94;;;14.00;75.16
9855;BME280;4966;48.112;9.282;2023-09-07T02:36:00;95020.41;;;13.76;76.07
9855;BME280;4966;48.112;9.282;2023-09-07T02:38:26;95021.00;;;13.69;76.57
9855;BME280;4966;48.112;9.282;2023-09-07T02:40:51;95021.69;;;13.66;76.42
9855;BME280;4966;48.112;9.282;2023-09-07T02:43:18;95016.88;;;13.75;76.17
9855;BME280;4966;48.112;9.282;2023-09-07T02:45:43;95024.28;;;13.75;76.74
9855;BME280;4966;48.112;9.282;2023-09-07T02:48:08;95022.88;;;13.81;76.21
9855;BME280;4966;48.112;9.282;2023-09-07T02:50:34;95009.91;;;13.78;75.93
9855;BME280;4966;48.112;9.282;2023-09-07T02:53:00;95013.03;;;13.64;76.71
9855;BME280;4966;48.112;9.282;2023-09-07T02:55:26;95014.91;;;13.76;76.05
9855;BME280;4966;48.112;9.282;2023-09-07T02:57:52;95018.22;;;13.81;75.28
9855;BME280;4966;48.112;9.282;2023-09-07T03:00:17;95012.69;;;13.66;76.10
9855;BME280;4966;48.112;9.282;2023-09-07T03:02:45;95017.47;;;13.69;76.20
9855;BME280;4966;48.112;9.282;2023-09-07T03:05:11;95011.53;;;13.67;76.07
9855;BME280;4966;48.112;9.282;2023-09-07T03:07:36;95015.72;;;13.76;75.15
9855;BME280;4966;48.112;9.282;2023-09-07T03:10:02;95017.47;;;13.69;75.35
9855;BME280;4966;48.112;9.282;2023-09-07T03:12:27;95008.72;;;13.63;75.25
9855;BME280;4966;48.112;9.282;2023-09-07T03:14:53;95012.97;;;13.76;74.14
9855;BME280;4966;48.112;9.282;2023-09-07T03:17:18;95019.75;;;13.67;74.20
9855;BME280;4966;48.112;9.282;2023-09-07T03:19:46;95026.31;;;13.50;74.88
9855;BME280;4966;48.112;9.282;2023-09-07T03:22:11;95027.03;;;13.47;75.36
9855;BME280;4966;48.112;9.282;2023-09-07T03:24:37;95022.53;;;13.54;74.86
9855;BME280;4966;48.112;9.282;2023-09-07T03:27:02;95025.53;;;13.49;75.13
9855;BME280;4966;48.112;9.282;2023-09-07T03:29:29;95021.84;;;13.29;76.11
9855;BME280;4966;48.112;9.282;2023-09-07T03:31:55;95017.84;;;13.39;75.56
9855;BME280;4966;48.112;9.282;2023-09-07T03:34:20;95019.59;;;13.47;75.65
9855;BME280;4966;48.112;9.282;2023-09-07T03:36:46;95016.38;;;13.57;75.23
9855;BME280;4966;48.112;9.282;2023-09-07T03:39:11;95029.75;;;13.47;75.67
9855;BME280;4966;48.112;9.282;2023-09-07T03:41:36;95032.81;;;13.45;75.65
9855;BME280;4966;48.112;9.282;2023-09-07T03:44:02;95027.16;;;13.38;75.61
9855;BME280;4966;48.112;9.282;2023-09-07T03:46:27;95023.19;;;13.35;75.45
9855;BME280;4966;48.112;9.282;2023-09-07T03:48:53;95019.66;;;13.35;75.13
9855;BME280;4966;48.112;9.282;2023-09-07T03:51:18;95019.91;;;13.30;74.86
9855;BME280;4966;48.112;9.282;2023-09-07T03:53:43;95031.06;;;13.25;75.71
9855;BME280;4966;48.112;9.282;2023-09-07T03:56:08;95029.09;;;13.37;75.13
9855;BME280;4966;48.112;9.282;2023-09-07T03:58:34;95035.06;;;13.27;75.85
9855;BME280;4966;48.112;9.282;2023-09-07T04:00:59;95025.47;;;13.21;76.04
9855;BME280;4966;48.112;9.282;2023-09-07T04:03:25;95032.78;;;13.17;76.33
9855;BME280;4966;48.112;9.282;2023-09-07T04:05:51;95026.50;;;13.16;76.72
9855;BME280;4966;48.112;9.282;2023-09-07T04:08:16;95023.69;;;13.13;76.76
9855;BME280;4966;48.112;9.282;2023-09-07T04:10:41;95033.72;;;13.09;77.08
9855;BME280;4966;48.112;9.282;2023-09-07T04:13:07;95027.91;;;13.10;76.95
9855;BME280;4966;48.112;9.282;2023-09-07T04:15:34;95027.44;;;13.08;77.06
9855;BME280;4966;48.112;9.282;2023-09-07T04:18:06;95032.38;;;13.03;77.32
9855;BME280;4966;48.112;9.282;2023-09-07T04:20:31;95034.84;;;13.08;77.29
9855;BME280;4966;48.112;9.282;2023-09-07T04:22:56;95031.09;;;13.12;77.15
9855;BME280;4966;48.112;9.282;2023-09-07T04:25:22;95032.34;;;13.15;76.61
9855;BME280;4966;48.112;9.282;2023-09-07T04:27:47;95026.22;;;13.06;76.40
9855;BME280;4966;48.112;9.282;2023-09-07T04:30:12;95029.28;;;13.04;76.20
9855;BME280;4966;48.112;9.282;2023-09-07T04:32:37;95030.75;;;13.02;75.85
9855;BME280;4966;48.112;9.282;2023-09-07T04:35:03;95032.59;;;13.10;75.40
9855;BME280;4966;48.112;9.282;2023-09-07T04:37:28;95030.75;;;13.02;75.73
9855;BME280;4966;48.112;9.282;2023-09-07T04:39:54;95030.28;;;13.12;75.50
9855;BME280;4966;48.112;9.282;2023-09-07T04:42:22;95038.25;;;13.17;75.48
9855;BME280;4966;48.112;9.282;2023-09-07T04:44:47;95039.81;;;13.30;75.00
9855;BME280;4966;48.112;9.282;2023-09-07T04:47:13;95032.22;;;13.11;75.83
9855;BME280;4966;48.112;9.282;2023-09-07T04:49:38;95041.00;;;13.05;76.39
9855;BME280;4966;48.112;9.282;2023-09-07T04:52:04;95041.06;;;13.20;75.86
9855;BME280;4966;48.112;9.282;2023-09-07T04:54:30;95044.88;;;13.04;76.48
9855;BME280;4966;48.112;9.282;2023-09-07T04:56:55;95044.53;;;13.05;76.33
9855;BME280;4966;48.112;9.282;2023-09-07T04:59:20;95053.63;;;13.09;76.23
9855;BME280;4966;48.112;9.282;2023-09-07T05:01:46;95047.56;;;13.16;75.29
9855;BME280;4966;48.112;9.282;2023-09-07T05:04:11;95048.56;;;13.24;74.54
9855;BME280;4966;48.112;9.282;2023-09-07T05:06:37;95044.03;;;13.28;74.53
9855;BME280;4966;48.112;9.282;2023-09-07T05:09:03;95044.28;;;13.10;75.45
9855;BME280;4966;48.112;9.282;2023-09-07T05:11:29;95052.34;;;13.19;75.51
9855;BME280;4966;48.112;9.282;2023-09-07T05:13:54;95045.63;;;13.16;75.86
9855;BME280;4966;48.112;9.282;2023-09-07T05:16:19;95051.53;;;13.31;75.27
9855;BME280;4966;48.112;9.282;2023-09-07T05:18:45;95043.47;;;13.34;74.86
9855;BME280;4966;48.112;9.282;2023-09-07T05:21:11;95049.00;;;13.38;74.59
9855;BME280;4966;48.112;9.282;2023-09-07T05:23:37;95054.81;;;13.49;74.38
9855;BME280;4966;48.112;9.282;2023-09-07T05:26:02;95048.88;;;13.47;74.11
9855;BME280;4966;48.112;9.282;2023-09-07T05:28:27;95052.28;;;13.56;73.75
9855;BME280;4966;48.112;9.282;2023-09-07T05:30:53;95054.63;;;13.70;73.79
9855;BME280;4966;48.112;9.282;2023-09-07T05:33:18;95059.38;;;13.73;73.71
9855;BME280;4966;48.112;9.282;2023-09-07T05:35:44;95053.97;;;13.89;73.56
9855;BME280;4966;48.112;9.282;2023-09-07T05:38:11;95057.84;;;14.03;73.04
9855;BME280;4966;48.112;9.282;2023-09-07T05:40:37;95057.16;;;14.07;73.04
9855;BME280;4966;48.112;9.282;2023-09-07T05:43:03;95066.97;;;14.23;73.21
9855;BME280;4966;48.112;9.282;2023-09-07T05:45:36;95062.56;;;14.35;73.13
9855;BME280;4966;48.112;9.282;2023-09-07T05:48:02;95064.88;;;14.49;73.01
9855;BME280;4966;48.112;9.282;2023-09-07T05:50:28;95065.59;;;14.61;72.90
9855;BME280;4966;48.112;9.282;2023-09-07T05:52:53;95062.75;;;14.74;72.85
9855;BME280;4966;48.112;9.282;2023-09-07T05:55:19;95061.88;;;14.85;72.99
9855;BME280;4966;48.112;9.282;2023-09-07T05:57:44;95057.47;;;14.65;73.81
9855;BME280;4966;48.112;9.282;2023-09-07T06:00:10;95063.25;;;14.95;73.65
9855;BME280;4966;48.112;9.282;2023-09-07T06:02:36;95062.03;;;14.93;73.48
9855;BME280;4966;48.112;9.282;2023-09-07T06:05:02;95056.78;;;15.03;73.38
9855;BME280;4966;48.112;9.282;2023-09-07T06:07:27;95066.19;;;15.22;72.73
9855;BME280;4966;48.112;9.282;2023-09-07T06:09:52;95068.25;;;15.44;72.04
9855;BME280;4966;48.112;9.282;2023-09-07T06:12:18;95066.03;;;15.69;72.03
9855;BME280;4966;48.112;9.282;2023-09-07T06:14:44;95063.88;;;15.79;72.11
9855;BME280;4966;48.112;9.282;2023-09-07T06:17:11;95057.06;;;15.92;71.97
9855;BME280;4966;48.112;9.282;2023-09-07T06:19:36;95058.56;;;16.09;72.36
9855;BME280;4966;48.112;9.282;2023-09-07T06:22:02;95056.47;;;16.22;72.36
9855;BME280;4966;48.112;9.282;2023-09-07T06:24:27;95053.50;;;16.11;73.09
9855;BME280;4966;48.112;9.282;2023-09-07T06:26:52;95060.25;;;16.36;72.89
9855;BME280;4966;48.112;9.282;2023-09-07T06:29:18;95059.44;;;16.59;72.52
9855;BME280;4966;48.112;9.282;2023-09-07T06:31:43;95059.28;;;16.71;73.06
9855;BME280;4966;48.112;9.282;2023-09-07T06:34:08;95059.03;;;16.80;73.48
9855;BME280;4966;48.112;9.282;2023-09-07T06:36:35;95058.16;;;16.99;73.88
9855;BME280;4966;48.112;9.282;2023-09-07T06:39:00;95058.44;;;17.17;73.76
9855;BME280;4966;48.112;9.282;2023-09-07T06:41:27;95066.47;;;17.29;74.30
9855;BME280;4966;48.112;9.282;2023-09-07T06:43:52;95065.72;;;17.62;72.88
9855;BME280;4966;48.112;9.282;2023-09-07T06:46:18;95063.16;;;17.77;73.28
9855;BME280;4966;48.112;9.282;2023-09-07T06:48:43;95069.97;;;17.87;73.75
9855;BME280;4966;48.112;9.282;2023-09-07T06:51:08;95066.66;;;18.07;74.58
9855;BME280;4966;48.112;9.282;2023-09-07T06:53:34;95062.25;;;18.37;73.15
9855;BME280;4966;48.112;9.282;2023-09-07T06:56:00;95058.94;;;18.65;72.46
9855;BME280;4966;48.112;9.282;2023-09-07T06:58:26;95053.63;;;18.83;71.65
9855;BME280;4966;48.112;9.282;2023-09-07T07:00:52;95058.47;;;19.00;71.08
9855;BME280;4966;48.112;9.282;2023-09-07T07:03:18;95057.00;;;19.13;71.87
9855;BME280;4966;48.112;9.282;2023-09-07T07:05:43;95050.72;;;19.17;69.12
9855;BME280;4966;48.112;9.282;2023-09-07T07:08:09;95058.75;;;19.40;69.86
9855;BME280;4966;48.112;9.282;2023-09-07T07:10:35;95058.88;;;19.61;67.68
9855;BME280;4966;48.112;9.282;2023-09-07T07:13:00;95063.38;;;19.94;67.48
9855;BME280;4966;48.112;9.282;2023-09-07T07:15:25;95069.72;;;20.13;66.72
9855;BME280;4966;48.112;9.282;2023-09-07T07:17:51;95067.31;;;19.97;65.69
9855;BME280;4966;48.112;9.282;2023-09-07T07:20:16;95070.97;;;20.26;65.41
9855;BME280;4966;48.112;9.282;2023-09-07T07:22:41;95069.34;;;20.14;65.22
9855;BME280;4966;48.112;9.282;2023-09-07T07:25:07;95062.31;;;20.46;65.02
9855;BME280;4966;48.112;9.282;2023-09-07T07:27:32;95075.00;;;20.61;64.91
9855;BME280;4966;48.112;9.282;2023-09-07T07:29:58;95066.72;;;20.72;64.13
9855;BME280;4966;48.112;9.282;2023-09-07T07:32:24;95064.34;;;20.74;63.86
9855;BME280;4966;48.112;9.282;2023-09-07T07:34:49;95070.28;;;20.79;63.57
9855;BME280;4966;48.112;9.282;2023-09-07T07:37:14;95081.34;;;20.94;63.93
9855;BME280;4966;48.112;9.282;2023-09-07T07:39:40;95081.72;;;20.99;64.25
9855;BME280;4966;48.112;9.282;2023-09-07T07:42:05;95071.06;;;20.98;64.04
9855;BME280;4966;48.112;9.282;2023-09-07T07:44:31;95072.66;;;21.17;62.88
9855;BME280;4966;48.112;9.282;2023-09-07T07:46:56;95071.84;;;21.27;63.22
9855;BME280;4966;48.112;9.282;2023-09-07T07:49:22;95076.56;;;21.37;62.85
9855;BME280;4966;48.112;9.282;2023-09-07T07:51:47;95071.78;;;21.59;61.51
9855;BME280;4966;48.112;9.282;2023-09-07T07:54:12;95065.09;;;21.39;62.00
9855;BME280;4966;48.112;9.282;2023-09-07T07:56:39;95069.44;;;21.33;62.06
9855;BME280;4966;48.112;9.282;2023-09-07T07:59:04;95067.88;;;21.50;61.83
9855;BME280;4966;48.112;9.282;2023-09-07T08:01:29;95066.66;;;21.65;61.51
9855;BME280;4966;48.112;9.282;2023-09-07T08:03:55;95074.94;;;21.61;60.41
9855;BME280;4966;48.112;9.282;2023-09-07T08:06:20;95066.94;;;21.96;60.53
9855;BME280;4966;48.112;9.282;2023-09-07T08:08:45;95069.25;;;22.04;60.46
9855;BME280;4966;48.112;9.282;2023-09-07T08:11:11;95077.34;;;21.63;61.56
9855;BME280;4966;48.112;9.282;2023-09-07T08:13:36;95072.91;;;21.83;61.60
9855;BME280;4966;48.112;9.282;2023-09-07T08:16:02;95068.41;;;22.25;59.71
9855;BME280;4966;48.112;9.282;2023-09-07T08:18:28;95075.50;;;22.30;59.67
9855;BME280;4966;48.112;9.282;2023-09-07T08:20:55;95073.91;;;22.29;59.02
9855;BME280;4966;48.112;9.282;2023-09-07T08:23:21;95069.94;;;22.37;59.02
9855;BME280;4966;48.112;9.282;2023-09-07T08:25:48;95073.44;;;22.45;59.00
9855;BME280;4966;48.112;9.282;2023-09-07T08:28:13;95070.63;;;22.52;59.30
9855;BME280;4966;48.112;9.282;2023-09-07T08:30:41;95071.84;;;22.51;58.33
9855;BME280;4966;48.112;9.282;2023-09-07T08:33:06;95068.28;;;22.47;58.36
9855;BME280;4966;48.112;9.282;2023-09-07T08:35:32;95060.09;;;22.85;57.37
9855;BME280;4966;48.112;9.282;2023-09-07T08:38:01;95067.66;;;22.81;59.07
9855;BME280;4966;48.112;9.282;2023-09-07T08:40:30;95054.38;;;23.10;58.01
9855;BME280;4966;48.112;9.282;2023-09-07T08:42:56;95050.47;;;23.04;56.99
9855;BME280;4966;48.112;9.282;2023-09-07T08:45:22;95056.75;;;23.08;57.82
9855;BME280;4966;48.112;9.282;2023-09-07T08:47:52;95058.88;;;23.38;56.87
9855;BME280;4966;48.112;9.282;2023-09-07T08:50:18;95056.22;;;23.27;57.86
9855;BME280;4966;48.112;9.282;2023-09-07T08:52:46;95054.88;;;23.39;55.97
9855;BME280;4966;48.112;9.282;2023-09-07T08:55:15;95050.09;;;23.43;56.76
9855;BME280;4966;48.112;9.282;2023-09-07T08:57:41;95058.72;;;23.56;55.42
9855;BME280;4966;48.112;9.282;2023-09-07T09:00:06;95052.47;;;23.83;56.92
9855;BME280;4966;48.112;9.282;2023-09-07T09:02:41;95055.22;;;23.86;56.06
9855;BME280;4966;48.112;9.282;2023-09-07T09:05:09;95058.38;;;23.85;54.91
9855;BME280;4966;48.112;9.282;2023-09-07T09:07:34;95056.19;;;23.65;56.36
9855;BME280;4966;48.112;9.282;2023-09-07T09:10:07;95058.53;;;23.74;55.87
9855;BME280;4966;48.112;9.282;2023-09-07T09:12:34;95055.50;;;23.95;55.92
9855;BME280;4966;48.112;9.282;2023-09-07T09:15:00;95055.59;;;24.19;55.94
9855;BME280;4966;48.112;9.282;2023-09-07T09:17:29;95056.97;;;24.34;55.86
9855;BME280;4966;48.112;9.282;2023-09-07T09:19:54;95054.47;;;24.44;55.19
9855;BME280;4966;48.112;9.282;2023-09-07T09:22:20;95050.41;;;24.52;53.99
9855;BME280;4966;48.112;9.282;2023-09-07T09:24:48;95056.53;;;24.09;55.66
9855;BME280;4966;48.112;9.282;2023-09-07T09:27:13;95052.47;;;24.44;55.14
9855;BME280;4966;48.112;9.282;2023-09-07T09:29:39;95049.59;;;24.55;55.65
9855;BME280;4966;48.112;9.282;2023-09-07T09:32:06;95051.88;;;24.60;55.10
9855;BME280;4966;48.112;9.282;2023-09-07T09:34:36;95049.25;;;24.76;55.57
9855;BME280;4966;48.112;9.282;2023-09-07T09:37:02;95051.75;;;24.94;54.75
9855;BME280;4966;48.112;9.282;2023-09-07T09:39:31;95049.28;;;25.00;53.38
9855;BME280;4966;48.112;9.282;2023-09-07T09:41:57;95053.63;;;25.01;54.89
9855;BME280;4966;48.112;9.282;2023-09-07T09:44:23;95049.47;;;25.13;54.49
9855;BME280;4966;48.112;9.282;2023-09-07T09:46:52;95041.44;;;24.68;53.31
9855;BME280;4966;48.112;9.282;2023-09-07T09:49:20;95050.19;;;25.17;52.84
9855;BME280;4966;48.112;9.282;2023-09-07T09:51:48;95048.59;;;25.19;53.10
9855;BME280;4966;48.112;9.282;2023-09-07T09:54:13;95045.91;;;25.12;54.60
9855;BME280;4966;48.112;9.282;2023-09-07T09:56:41;95043.59;;;25.31;53.04
9855;BME280;4966;48.112;9.282;2023-09-07T09:59:06;95042.03;;;25.30;52.72
9855;BME280;4966;48.112;9.282;2023-09-07T10:01:39;95040.00;;;25.34;52.11
9855;BME280;4966;48.112;9.282;2023-09-07T10:04:08;95040.94;;;25.47;52.60
9855;BME280;4966;48.112;9.282;2023-09-07T10:06:34;95039.16;;;25.57;53.01
9855;BME280;4966;48.112;9.282;2023-09-07T10:09:05;95045.97;;;25.76;52.38
9855;BME280;4966;48.112;9.282;2023-09-07T10:11:34;95041.84;;;25.84;53.17
9855;BME280;4966;48.112;9.282;2023-09-07T10:14:01;95042.47;;;25.72;52.56
9855;BME280;4966;48.112;9.282;2023-09-07T10:16:47;95032.13;;;25.92;50.20
9855;BME280;4966;48.112;9.282;2023-09-07T10:19:24;95036.00;;;25.98;52.16
9855;BME280;4966;48.112;9.282;2023-09-07T10:21:52;95036.56;;;26.09;49.36
9855;BME280;4966;48.112;9.282;2023-09-07T10:27:07;95032.84;;;25.96;49.67
9855;BME280;4966;48.112;9.282;2023-09-07T10:29:46;95034.84;;;26.16;50.19
9855;BME280;4966;48.112;9.282;2023-09-07T10:32:15;95032.69;;;26.23;50.13
9855;BME280;4966;48.112;9.282;2023-09-07T10:34:42;95033.41;;;26.27;50.10
9855;BME280;4966;48.112;9.282;2023-09-07T10:37:11;95024.91;;;26.15;49.93
9855;BME280;4966;48.112;9.282;2023-09-07T10:39:39;95024.59;;;25.69;49.80
9855;BME280;4966;48.112;9.282;2023-09-07T10:42:05;95020.81;;;26.19;50.28
9855;BME280;4966;48.112;9.282;2023-09-07T10:44:30;95016.34;;;26.05;52.90
9855;BME280;4966;48.112;9.282;2023-09-07T10:46:58;95022.66;;;26.46;49.99
9855;BME280;4966;48.112;9.282;2023-09-07T10:49:24;95026.63;;;26.98;48.49
9855;BME280;4966;48.112;9.282;2023-09-07T10:51:50;95018.53;;;27.03;47.59
9855;BME280;4966;48.112;9.282;2023-09-07T10:54:23;95014.53;;;27.21;47.35
9855;BME280;4966;48.112;9.282;2023-09-07T10:56:50;95009.53;;;27.28;47.81
9855;BME280;4966;48.112;9.282;2023-09-07T10:59:16;95005.00;;;27.34;48.16
9855;BME280;4966;48.112;9.282;2023-09-07T11:01:44;95001.75;;;27.36;47.10
9855;BME280;4966;48.112;9.282;2023-09-07T11:04:09;94995.94;;;27.60;47.97
9855;BME280;4966;48.112;9.282;2023-09-07T11:06:37;95000.44;;;27.24;48.09
9855;BME280;4966;48.112;9.282;2023-09-07T11:09:04;94997.19;;;27.71;46.09
9855;BME280;4966;48.112;9.282;2023-09-07T11:11:31;94999.34;;;27.80;46.02
9855;BME280;4966;48.112;9.282;2023-09-07T11:13:58;94997.19;;;28.00;46.37
9855;BME280;4966;48.112;9.282;2023-09-07T11:16:24;94994.97;;;28.08;46.01
9855;BME280;4966;48.112;9.282;2023-09-07T11:18:50;94990.59;;;28.07;43.96
9855;BME280;4966;48.112;9.282;2023-09-07T11:21:16;94992.50;;;28.10;43.90
9855;BME280;4966;48.112;9.282;2023-09-07T11:23:42;94993.97;;;28.28;44.83
9855;BME280;4966;48.112;9.282;2023-09-07T11:26:08;94986.53;;;28.76;43.53
9855;BME280;4966;48.112;9.282;2023-09-07T11:28:34;94991.38;;;31.18;38.80
9855;BME280;4966;48.112;9.282;2023-09-07T11:30:59;94981.34;;;33.99;32.88
9855;BME280;4966;48.112;9.282;2023-09-07T11:33:25;94981.63;;;34.90;32.18
9855;BME280;4966;48.112;9.282;2023-09-07T11:35:51;94975.13;;;36.86;26.52
9855;BME280;4966;48.112;9.282;2023-09-07T11:38:19;94971.38;;;38.03;26.23
9855;BME280;4966;48.112;9.282;2023-09-07T11:40:44;94963.41;;;39.20;25.08
9855;BME280;4966;48.112;9.282;2023-09-07T11:43:14;94967.69;;;40.24;23.74
9855;BME280;4966;48.112;9.282;2023-09-07T11:45:40;94963.06;;;41.67;22.49
9855;BME280;4966;48.112;9.282;2023-09-07T11:48:06;94961.41;;;42.15;21.11
9855;BME280;4966;48.112;9.282;2023-09-07T11:50:34;94960.59;;;42.14;21.66
9855;BME280;4966;48.112;9.282;2023-09-07T11:53:00;94961.16;;;42.51;21.52
9855;BME280;4966;48.112;9.282;2023-09-07T11:55:25;94950.69;;;43.71;19.56
9855;BME280;4966;48.112;9.282;2023-09-07T11:57:50;94969.66;;;43.61;19.66
9855;BME280;4966;48.112;9.282;2023-09-07T12:00:17;94958.59;;;43.38;19.77
9855;BME280;4966;48.112;9.282;2023-09-07T12:02:42;94951.88;;;43.36;18.39
9855;BME280;4966;48.112;9.282;2023-09-07T12:05:08;94954.59;;;43.15;19.01
9855;BME280;4966;48.112;9.282;2023-09-07T12:07:35;94952.72;;;43.04;19.25
9855;BME280;4966;48.112;9.282;2023-09-07T12:10:00;94954.91;;;42.98;19.92
9855;BME280;4966;48.112;9.282;2023-09-07T12:12:26;94956.59;;;42.23;21.27
9855;BME280;4966;48.112;9.282;2023-09-07T12:14:51;94960.09;;;40.32;23.35
9855;BME280;4966;48.112;9.282;2023-09-07T12:17:16;94958.31;;;40.24;23.33
9855;BME280;4966;48.112;9.282;2023-09-07T12:19:42;94957.25;;;38.76;24.70
9855;BME280;4966;48.112;9.282;2023-09-07T12:22:11;94952.66;;;37.68;25.38
9855;BME280;4966;48.112;9.282;2023-09-07T12:24:36;94964.44;;;36.37;28.54
9855;BME280;4966;48.112;9.282;2023-09-07T12:27:01;94953.69;;;35.95;29.23
9855;BME280;4966;48.112;9.282;2023-09-07T12:29:26;94956.34;;;35.37;29.32
9855;BME280;4966;48.112;9.282;2023-09-07T12:31:52;94945.94;;;34.72;30.14
9855;BME280;4966;48.112;9.282;2023-09-07T12:34:17;94948.28;;;34.44;32.36
9855;BME280;4966;48.112;9.282;2023-09-07T12:36:42;94933.16;;;33.88;30.21
9855;BME280;4966;48.112;9.282;2023-09-07T12:39:08;94938.50;;;33.71;32.58
9855;BME280;4966;48.112;9.282;2023-09-07T12:41:33;94938.16;;;33.93;32.40
9855;BME280;4966;48.112;9.282;2023-09-07T12:43:58;94934.88;;;34.24;31.20
9855;BME280;4966;48.112;9.282;2023-09-07T12:46:24;94930.94;;;34.66;30.84
9855;BME280;4966;48.112;9.282;2023-09-07T12:48:49;94933.28;;;36.11;28.33
9855;BME280;4966;48.112;9.282;2023-09-07T12:51:15;94934.28;;;37.52;27.40
9855;BME280;4966;48.112;9.282;2023-09-07T12:53:41;94928.91;;;37.11;26.28
9855;BME280;4966;48.112;9.282;2023-09-07T12:56:06;94934.00;;;38.72;25.48
9855;BME280;4966;48.112;9.282;2023-09-07T12:58:32;94943.69;;;40.03;23.76
9855;BME280;4966;48.112;9.282;2023-09-07T13:00:57;94937.75;;;39.37;23.31
9855;BME280;4966;48.112;9.282;2023-09-07T13:03:22;94941.25;;;40.59;23.01
9855;BME280;4966;48.112;9.282;2023-09-07T13:05:48;94935.69;;;41.71;22.23
9855;BME280;4966;48.112;9.282;2023-09-07T13:08:13;94939.78;;;41.57;21.38
9855;BME280;4966;48.112;9.282;2023-09-07T13:10:39;94937.47;;;42.31;20.65
9855;BME280;4966;48.112;9.282;2023-09-07T13:13:05;94932.38;;;41.23;23.16
9855;BME280;4966;48.112;9.282;2023-09-07T13:15:30;94932.94;;;41.65;22.37
9855;BME280;4966;48.112;9.282;2023-09-07T13:17:56;94929.47;;;40.38;24.27